Flight Track Log - Related Links

Times and Time Zones

All times are in EDT time to prevent confusion due to time zone crossing. See the EGF4218 flight status page for this flight to view local times or setup timezone preferences in your user account.

Time Position Orientation Groundspeed Altitude Reporting Facility
EDT Latitude Longitude Course Direction KTS MPH feet Rate Location/Type
Sun 10:55:00 AM 41.9500 -87.9000 194° South 171 197 1,400  Level Chicago TRACON
Sun 10:56:00 AM 41.8833 -87.9000 180° South 223 257 3,500 2,050 Climbing Chicago TRACON
Sun 10:57:00 AM 41.7899 -88.2077 203° Southwest  Level Estimated
Sun 10:57:00 AM 41.8333 -87.9500 217° Southwest 236 272 5,500  Level Chicago TRACON
Sun 10:57:16 AM 41.8267 -87.9572 219° Southwest 234 269 5,700 1,923 Climbing Chicago Center
Sun 10:58:00 AM 41.7016 -88.1498 154° Southeast  Level FlightAware Approximate
Sun 10:58:18 AM 41.7606 -87.9933 202° Southwest 257 296 8,000  Level Chicago Center
Sun 10:59:00 AM 41.6384 -88.2506 197° South  Level Estimated
Sun 10:59:19 AM 41.6731 -88.0375 201° Southwest 281 323 10,400  Level Chicago Center
Sun 11:00:00 AM 41.5752 -88.3513 194° South  Level Estimated
Sun 11:00:21 AM 41.5981 -88.0783 202° Southwest 294 338 12,000  Level Chicago Center
Sun 11:01:23 AM 41.5169 -88.1219 202° Southwest 318 366 13,500 1,403 Climbing Chicago Center
Sun 11:02:25 AM 41.4333 -88.1650 201° Southwest 332 382 14,900 1,512 Climbing Chicago Center
Sun 11:03:26 AM 41.3275 -88.2161 200° South 348 400 16,600 1,512 Climbing Chicago Center
Sun 11:04:28 AM 41.2378 -88.2569 199° South 347 399 18,000 1,355 Climbing Chicago Center
Sun 11:05:30 AM 41.1481 -88.2972 199° South 345 397 19,400 1,403 Climbing Chicago Center
Sun 11:06:32 AM 41.0575 -88.3392 199° South 348 400 20,900 1,415 Climbing Chicago Center
Sun 11:07:33 AM 40.9650 -88.3797 198° South 352 405 22,300 1,561 Climbing Chicago Center
Sun 11:08:35 AM 40.8556 -88.4289 199° South 349 402 24,100 1,403 Climbing Chicago Center
Sun 11:09:37 AM 40.7636 -88.4689 198° South 350 403 25,200 976 Climbing Chicago Center
Sun 11:10:38 AM 40.6678 -88.5114 199° South 360 414 26,100 927 Climbing Chicago Center
Sun 11:11:40 AM 40.5711 -88.5533 198° South 367 422 27,100 968 Climbing Chicago Center
Sun 11:13:44 AM 40.3644 -88.6453 199° South 368 423 29,100 973 Climbing Chicago Center
Sun 11:14:45 AM 40.2842 -88.7231 216° Southwest 356 410 30,100 927 Climbing Chicago Center
Sun 11:15:47 AM 40.2219 -88.8267 232° Southwest 360 414 31,000 871 Climbing Chicago Center
Sun 11:16:49 AM 40.1603 -88.9308 232° Southwest 360 414 31,900 488 Climbing Chicago Center
Sun 11:17:50 AM 40.0942 -89.0428 232° Southwest 376 433 32,000 54 Climbing Chicago Center
Sun 11:18:40 AM 40.0397 -89.1336 232° Southwest 388 447 32,000  Level Kansas City Center
Sun 11:19:42 AM 39.9706 -89.2486 232° Southwest 398 458 32,000  Level Kansas City Center
Sun 11:20:43 AM 39.9011 -89.3639 232° Southwest 402 463 32,000  Level Kansas City Center
Sun 11:21:45 AM 39.8194 -89.5003 232° Southwest 399 459 32,000  Level Kansas City Center
Sun 11:22:47 AM 39.7503 -89.6139 232° Southwest 399 459 32,000  Level Kansas City Center
Sun 11:23:49 AM 39.6900 -89.7128 232° Southwest 397 457 32,000  Level Kansas City Center
Sun 11:24:51 AM 39.6089 -89.8458 232° Southwest 394 453 32,000  Level Kansas City Center
Sun 11:25:53 AM 39.5403 -89.9575 231° Southwest 396 456 32,000  Level Kansas City Center
Sun 11:26:55 AM 39.4725 -90.0683 232° Southwest 395 455 32,000  Level Kansas City Center
Sun 11:27:57 AM 39.4042 -90.1800 232° Southwest 396 456 32,000  Level Kansas City Center
Sun 11:28:59 AM 39.3356 -90.2919 232° Southwest 399 459 32,000  Level Kansas City Center
Sun 11:30:01 AM 39.2661 -90.4028 231° Southwest 399 459 32,000  Level Kansas City Center
Sun 11:31:02 AM 39.1836 -90.5367 232° Southwest 400 460 32,000  Level Kansas City Center
Sun 11:32:04 AM 39.1139 -90.6472 231° Southwest 402 463 32,000  Level Kansas City Center
Sun 11:33:06 AM 39.0461 -90.7569 232° Southwest 396 456 32,000  Level Kansas City Center
Sun 11:34:08 AM 38.9756 -90.8678 231° Southwest 402 463 32,000  Level Kansas City Center
Sun 11:35:10 AM 38.9042 -90.9814 231° Southwest 408 470 32,000  Level Kansas City Center
Sun 11:36:12 AM 38.8233 -91.1197 233° Southwest 407 468 32,000  Level Kansas City Center
Sun 11:37:14 AM 38.7614 -91.2444 238° Southwest 413 475 32,000  Level Kansas City Center
Sun 11:38:16 AM 38.7000 -91.3686 238° Southwest 415 478 32,000  Level Kansas City Center
Sun 11:39:18 AM 38.6414 -91.4894 238° Southwest 409 471 32,000  Level Kansas City Center
Sun 11:40:20 AM 38.5792 -91.6128 237° Southwest 409 471 32,000  Level Kansas City Center
Sun 11:41:22 AM 38.5042 -91.7611 237° Southwest 412 474 32,000  Level Kansas City Center
Sun 11:42:24 AM 38.4419 -91.8842 237° Southwest 412 474 32,000  Level Kansas City Center
Sun 11:43:26 AM 38.3794 -92.0069 237° Southwest 413 475 32,000  Level Kansas City Center
Sun 11:44:28 AM 38.3161 -92.1325 237° Southwest 419 482 32,000  Level Kansas City Center
Sun 11:45:30 AM 38.2536 -92.2550 237° Southwest 420 483 32,000  Level Kansas City Center
Sun 11:46:32 AM 38.1911 -92.3775 237° Southwest 417 480 32,000  Level Kansas City Center
Sun 11:47:34 AM 38.1147 -92.5267 237° Southwest 425 489 32,000  Level Kansas City Center
Sun 11:48:36 AM 38.0486 -92.6489 236° Southwest 424 488 32,000  Level Kansas City Center
Sun 11:49:38 AM 37.9878 -92.7689 237° Southwest 417 480 32,000  Level Kansas City Center
Sun 11:50:40 AM 37.9242 -92.8906 236° Southwest 414 476 32,000  Level Kansas City Center
Sun 11:51:42 AM 37.8600 -93.0128 236° Southwest 416 479 32,000  Level Kansas City Center
Sun 11:52:44 AM 37.7856 -93.1583 237° Southwest 412 474 32,000  Level Kansas City Center
Sun 11:53:46 AM 37.7217 -93.2792 236° Southwest 413 475 32,000  Level Kansas City Center
Sun 11:54:48 AM 37.6575 -93.4014 236° Southwest 415 478 32,000  Level Kansas City Center
Sun 11:55:49 AM 37.5900 -93.5211 235° Southwest 417 480 32,000  Level Kansas City Center
Sun 11:56:51 AM 37.5258 -93.6433 237° Southwest 417 480 32,000  Level Kansas City Center
Sun 11:57:53 AM 37.4614 -93.7650 236° Southwest 417 480 32,000 -194 Level Kansas City Center
Sun 11:58:55 AM 37.3953 -93.8858 235° Southwest 417 480 31,600 -919 Descending Kansas City Center
Sun 11:59:57 AM 37.3286 -94.0103 236° Southwest 425 489 30,100 -1,500 Descending Kansas City Center
Sun 12:00:59 PM 37.2561 -94.1453 236° Southwest 422 486 28,500 -1,500 Descending Kansas City Center
Sun 12:02:01 PM 37.1906 -94.2675 236° Southwest 421 484 27,000 -1,452 Descending Kansas City Center
Sun 12:03:03 PM 37.1228 -94.3922 236° Southwest 428 493 25,500 -1,452 Descending Kansas City Center
Sun 12:04:05 PM 37.0389 -94.5461 236° Southwest 442 509 24,000 -726 Descending Kansas City Center
Sun 12:05:07 PM 36.9692 -94.6717 235° Southwest 441 507 24,000 -581 Level Kansas City Center
Sun 12:06:09 PM 36.9033 -94.7961 237° Southwest 432 497 22,800 -1,610 Descending Kansas City Center
Sun 12:07:10 PM 36.8372 -94.9139 235° Southwest 419 482 20,700 -2,000 Descending Kansas City Center
Sun 12:08:12 PM 36.7722 -95.0317 235° Southwest 415 478 18,700 -1,839 Descending Kansas City Center
Sun 12:09:14 PM 36.7058 -95.1503 235° Southwest 415 478 16,900 -2,040 Descending Kansas City Center
Sun 12:09:52 PM 36.6564 -95.2378 235° Southwest 402 463 15,300 -1,935 Descending Kansas City Center
Sun 12:10:16 PM 36.6400 -95.2583 225° Southwest 398 458 14,900 -1,978 Descending Kansas City Center
Sun 12:11:23 PM 36.5369 -95.3792 223° Southwest 382 440 12,300 -2,081 Descending Kansas City Center
Sun 12:12:20 PM 36.4719 -95.4575 224° Southwest 379 436 10,600 -1,160 Descending Kansas City Center
Sun 12:13:22 PM 36.4008 -95.5292 219° Southwest 364 419 10,000 -1,073 Descending Kansas City Center
Sun 12:14:23 PM 36.3208 -95.5494 192° South 307 353 8,400 -2,244 Descending Kansas City Center
Sun 12:15:25 PM 36.2325 -95.5742 193° South 279 321 5,400 -2,419 Descending Kansas City Center
Sun 12:16:27 PM 36.1658 -95.6044 200° South 270 311 3,400 -1,935 Descending Kansas City Center

Login

Don't have an account? Register now (free) for customized features, flight alerts, and more!